sensor_id;sensor_type;location;lat;lon;timestamp;P1;durP1;ratioP1;P2;durP2;ratioP2
19969;SDS011;10146;47.754;9.566;2022-08-30T00:00:09;10.48;;;8.00;;
19969;SDS011;10146;47.754;9.566;2022-08-30T00:02:57;8.25;;;7.45;;
19969;SDS011;10146;47.754;9.566;2022-08-30T00:05:24;10.70;;;8.30;;
19969;SDS011;10146;47.754;9.566;2022-08-30T00:07:51;8.73;;;7.90;;
19969;SDS011;10146;47.754;9.566;2022-08-30T00:10:17;9.55;;;8.65;;
19969;SDS011;10146;47.754;9.566;2022-08-30T00:12:43;9.27;;;8.38;;
19969;SDS011;10146;47.754;9.566;2022-08-30T00:15:09;8.85;;;7.95;;
19969;SDS011;10146;47.754;9.566;2022-08-30T00:17:36;12.52;;;7.38;;
19969;SDS011;10146;47.754;9.566;2022-08-30T00:20:06;8.32;;;7.57;;
19969;SDS011;10146;47.754;9.566;2022-08-30T00:22:33;9.07;;;8.23;;
19969;SDS011;10146;47.754;9.566;2022-08-30T00:24:59;9.57;;;8.27;;
19969;SDS011;10146;47.754;9.566;2022-08-30T00:27:29;10.98;;;8.15;;
19969;SDS011;10146;47.754;9.566;2022-08-30T00:29:55;9.88;;;8.30;;
19969;SDS011;10146;47.754;9.566;2022-08-30T00:32:21;9.63;;;8.63;;
19969;SDS011;10146;47.754;9.566;2022-08-30T00:34:48;9.32;;;8.52;;
19969;SDS011;10146;47.754;9.566;2022-08-30T00:37:18;10.10;;;9.05;;
19969;SDS011;10146;47.754;9.566;2022-08-30T00:39:44;9.75;;;8.77;;
19969;SDS011;10146;47.754;9.566;2022-08-30T00:42:10;9.93;;;8.93;;
19969;SDS011;10146;47.754;9.566;2022-08-30T00:44:38;10.25;;;8.68;;
19969;SDS011;10146;47.754;9.566;2022-08-30T00:47:05;9.32;;;8.30;;
19969;SDS011;10146;47.754;9.566;2022-08-30T00:49:31;9.77;;;8.88;;
19969;SDS011;10146;47.754;9.566;2022-08-30T00:52:00;9.00;;;8.10;;
19969;SDS011;10146;47.754;9.566;2022-08-30T00:56:53;9.80;;;8.00;;
19969;SDS011;10146;47.754;9.566;2022-08-30T00:59:19;11.55;;;9.15;;
19969;SDS011;10146;47.754;9.566;2022-08-30T01:01:48;8.82;;;7.93;;
19969;SDS011;10146;47.754;9.566;2022-08-30T01:04:14;8.93;;;8.13;;
19969;SDS011;10146;47.754;9.566;2022-08-30T01:06:43;9.90;;;8.90;;
19969;SDS011;10146;47.754;9.566;2022-08-30T01:09:10;10.57;;;9.25;;
19969;SDS011;10146;47.754;9.566;2022-08-30T01:11:37;10.00;;;9.10;;
19969;SDS011;10146;47.754;9.566;2022-08-30T01:14:06;10.25;;;9.35;;
19969;SDS011;10146;47.754;9.566;2022-08-30T01:16:33;12.70;;;10.20;;
19969;SDS011;10146;47.754;9.566;2022-08-30T01:19:00;11.38;;;10.30;;
19969;SDS011;10146;47.754;9.566;2022-08-30T01:21:28;9.50;;;8.68;;
19969;SDS011;10146;47.754;9.566;2022-08-30T01:23:56;12.02;;;10.93;;
19969;SDS011;10146;47.754;9.566;2022-08-30T01:26:24;11.50;;;10.30;;
19969;SDS011;10146;47.754;9.566;2022-08-30T01:28:54;11.50;;;10.40;;
19969;SDS011;10146;47.754;9.566;2022-08-30T01:31:22;10.25;;;9.25;;
19969;SDS011;10146;47.754;9.566;2022-08-30T01:33:48;10.82;;;9.77;;
19969;SDS011;10146;47.754;9.566;2022-08-30T01:36:14;10.48;;;9.43;;
19969;SDS011;10146;47.754;9.566;2022-08-30T01:38:46;14.57;;;11.85;;
19969;SDS011;10146;47.754;9.566;2022-08-30T01:41:13;11.60;;;10.50;;
19969;SDS011;10146;47.754;9.566;2022-08-30T01:43:41;11.43;;;10.30;;
19969;SDS011;10146;47.754;9.566;2022-08-30T01:46:07;10.40;;;9.60;;
19969;SDS011;10146;47.754;9.566;2022-08-30T01:48:36;10.90;;;9.80;;
19969;SDS011;10146;47.754;9.566;2022-08-30T01:51:03;11.05;;;10.02;;
19969;SDS011;10146;47.754;9.566;2022-08-30T01:53:29;10.73;;;9.73;;
19969;SDS011;10146;47.754;9.566;2022-08-30T01:55:56;10.27;;;9.18;;
19969;SDS011;10146;47.754;9.566;2022-08-30T01:58:22;11.55;;;9.98;;
19969;SDS011;10146;47.754;9.566;2022-08-30T02:00:48;13.68;;;9.68;;
19969;SDS011;10146;47.754;9.566;2022-08-30T02:03:14;11.10;;;9.75;;
19969;SDS011;10146;47.754;9.566;2022-08-30T02:05:39;11.63;;;10.43;;
19969;SDS011;10146;47.754;9.566;2022-08-30T02:08:05;10.80;;;9.80;;
19969;SDS011;10146;47.754;9.566;2022-08-30T02:10:31;11.13;;;9.93;;
19969;SDS011;10146;47.754;9.566;2022-08-30T02:12:57;10.77;;;9.77;;
19969;SDS011;10146;47.754;9.566;2022-08-30T02:15:23;10.60;;;9.50;;
19969;SDS011;10146;47.754;9.566;2022-08-30T02:17:49;12.65;;;10.35;;
19969;SDS011;10146;47.754;9.566;2022-08-30T02:20:15;11.95;;;10.77;;
19969;SDS011;10146;47.754;9.566;2022-08-30T02:22:41;12.07;;;10.80;;
19969;SDS011;10146;47.754;9.566;2022-08-30T02:25:07;11.55;;;10.02;;
19969;SDS011;10146;47.754;9.566;2022-08-30T02:27:33;10.68;;;9.68;;
19969;SDS011;10146;47.754;9.566;2022-08-30T02:29:59;11.50;;;10.40;;
19969;SDS011;10146;47.754;9.566;2022-08-30T02:32:25;10.52;;;9.63;;
19969;SDS011;10146;47.754;9.566;2022-08-30T02:34:50;11.88;;;9.63;;
19969;SDS011;10146;47.754;9.566;2022-08-30T02:37:16;11.35;;;10.15;;
19969;SDS011;10146;47.754;9.566;2022-08-30T02:39:42;12.40;;;11.18;;
19969;SDS011;10146;47.754;9.566;2022-08-30T02:42:07;12.57;;;10.30;;
19969;SDS011;10146;47.754;9.566;2022-08-30T02:44:33;10.63;;;9.73;;
19969;SDS011;10146;47.754;9.566;2022-08-30T02:46:59;11.15;;;9.85;;
19969;SDS011;10146;47.754;9.566;2022-08-30T02:49:24;14.00;;;12.60;;
19969;SDS011;10146;47.754;9.566;2022-08-30T02:51:50;14.30;;;12.55;;
19969;SDS011;10146;47.754;9.566;2022-08-30T02:54:16;11.38;;;10.32;;
19969;SDS011;10146;47.754;9.566;2022-08-30T02:56:47;12.00;;;10.90;;
19969;SDS011;10146;47.754;9.566;2022-08-30T02:59:13;11.38;;;10.32;;
19969;SDS011;10146;47.754;9.566;2022-08-30T03:01:40;12.55;;;11.10;;
19969;SDS011;10146;47.754;9.566;2022-08-30T03:04:06;14.35;;;11.25;;
19969;SDS011;10146;47.754;9.566;2022-08-30T03:06:32;12.68;;;11.48;;
19969;SDS011;10146;47.754;9.566;2022-08-30T03:08:57;12.80;;;11.48;;
19969;SDS011;10146;47.754;9.566;2022-08-30T03:11:23;14.73;;;10.82;;
19969;SDS011;10146;47.754;9.566;2022-08-30T03:13:49;10.57;;;9.57;;
19969;SDS011;10146;47.754;9.566;2022-08-30T03:16:15;13.15;;;11.45;;
19969;SDS011;10146;47.754;9.566;2022-08-30T03:18:41;12.43;;;11.23;;
19969;SDS011;10146;47.754;9.566;2022-08-30T03:21:13;12.25;;;11.10;;
19969;SDS011;10146;47.754;9.566;2022-08-30T03:23:40;12.80;;;11.50;;
19969;SDS011;10146;47.754;9.566;2022-08-30T03:26:07;11.65;;;10.00;;
19969;SDS011;10146;47.754;9.566;2022-08-30T03:28:34;11.95;;;10.48;;
19969;SDS011;10146;47.754;9.566;2022-08-30T03:31:00;12.30;;;11.00;;
19969;SDS011;10146;47.754;9.566;2022-08-30T03:33:26;12.98;;;11.57;;
19969;SDS011;10146;47.754;9.566;2022-08-30T03:35:51;14.55;;;13.25;;
19969;SDS011;10146;47.754;9.566;2022-08-30T03:38:17;12.02;;;10.70;;
19969;SDS011;10146;47.754;9.566;2022-08-30T03:40:43;12.13;;;9.77;;
19969;SDS011;10146;47.754;9.566;2022-08-30T03:43:08;13.60;;;11.70;;
19969;SDS011;10146;47.754;9.566;2022-08-30T03:45:35;13.07;;;11.82;;
19969;SDS011;10146;47.754;9.566;2022-08-30T03:48:01;13.60;;;12.40;;
19969;SDS011;10146;47.754;9.566;2022-08-30T03:50:28;12.23;;;11.02;;
19969;SDS011;10146;47.754;9.566;2022-08-30T03:52:54;13.40;;;12.10;;
19969;SDS011;10146;47.754;9.566;2022-08-30T03:55:20;14.13;;;12.73;;
19969;SDS011;10146;47.754;9.566;2022-08-30T03:57:46;14.20;;;12.68;;
19969;SDS011;10146;47.754;9.566;2022-08-30T04:00:12;16.15;;;13.13;;
19969;SDS011;10146;47.754;9.566;2022-08-30T04:02:39;14.55;;;13.02;;
19969;SDS011;10146;47.754;9.566;2022-08-30T04:05:06;14.20;;;12.77;;
19969;SDS011;10146;47.754;9.566;2022-08-30T04:07:33;13.07;;;11.90;;
19969;SDS011;10146;47.754;9.566;2022-08-30T04:09:58;14.77;;;13.38;;
19969;SDS011;10146;47.754;9.566;2022-08-30T04:12:25;13.85;;;12.45;;
19969;SDS011;10146;47.754;9.566;2022-08-30T04:14:51;16.83;;;12.65;;
19969;SDS011;10146;47.754;9.566;2022-08-30T04:17:16;12.15;;;11.00;;
19969;SDS011;10146;47.754;9.566;2022-08-30T04:19:42;12.18;;;11.02;;
19969;SDS011;10146;47.754;9.566;2022-08-30T04:22:08;13.30;;;11.93;;
19969;SDS011;10146;47.754;9.566;2022-08-30T04:24:33;11.98;;;10.88;;
19969;SDS011;10146;47.754;9.566;2022-08-30T04:26:59;13.13;;;11.70;;
19969;SDS011;10146;47.754;9.566;2022-08-30T04:29:25;12.45;;;11.18;;
19969;SDS011;10146;47.754;9.566;2022-08-30T04:31:51;13.35;;;11.95;;
19969;SDS011;10146;47.754;9.566;2022-08-30T04:34:16;13.45;;;11.88;;
19969;SDS011;10146;47.754;9.566;2022-08-30T04:36:42;13.25;;;11.95;;
19969;SDS011;10146;47.754;9.566;2022-08-30T04:39:08;14.20;;;12.90;;
19969;SDS011;10146;47.754;9.566;2022-08-30T04:41:36;13.48;;;12.27;;
19969;SDS011;10146;47.754;9.566;2022-08-30T04:44:04;12.93;;;11.63;;
19969;SDS011;10146;47.754;9.566;2022-08-30T04:46:32;14.80;;;13.30;;
19969;SDS011;10146;47.754;9.566;2022-08-30T04:48:59;14.43;;;12.95;;
19969;SDS011;10146;47.754;9.566;2022-08-30T04:51:25;14.70;;;13.23;;
19969;SDS011;10146;47.754;9.566;2022-08-30T04:53:51;15.25;;;13.63;;
19969;SDS011;10146;47.754;9.566;2022-08-30T04:56:17;15.88;;;13.95;;
19969;SDS011;10146;47.754;9.566;2022-08-30T04:58:46;15.30;;;13.90;;
19969;SDS011;10146;47.754;9.566;2022-08-30T05:01:14;14.45;;;13.15;;
19969;SDS011;10146;47.754;9.566;2022-08-30T05:03:41;13.60;;;12.27;;
19969;SDS011;10146;47.754;9.566;2022-08-30T05:06:09;14.13;;;12.82;;
19969;SDS011;10146;47.754;9.566;2022-08-30T05:08:35;16.30;;;14.60;;
19969;SDS011;10146;47.754;9.566;2022-08-30T05:11:02;15.23;;;13.52;;
19969;SDS011;10146;47.754;9.566;2022-08-30T05:13:29;14.20;;;12.77;;
19969;SDS011;10146;47.754;9.566;2022-08-30T05:15:55;13.82;;;12.63;;
19969;SDS011;10146;47.754;9.566;2022-08-30T05:18:20;14.35;;;13.00;;
19969;SDS011;10146;47.754;9.566;2022-08-30T05:20:46;15.35;;;13.85;;
19969;SDS011;10146;47.754;9.566;2022-08-30T05:23:12;14.02;;;12.65;;
19969;SDS011;10146;47.754;9.566;2022-08-30T05:25:38;16.92;;;15.30;;
19969;SDS011;10146;47.754;9.566;2022-08-30T05:28:05;13.85;;;12.45;;
19969;SDS011;10146;47.754;9.566;2022-08-30T05:30:32;16.20;;;14.50;;
19969;SDS011;10146;47.754;9.566;2022-08-30T05:33:00;13.50;;;12.13;;
19969;SDS011;10146;47.754;9.566;2022-08-30T05:35:26;15.10;;;13.73;;
19969;SDS011;10146;47.754;9.566;2022-08-30T05:37:52;17.48;;;15.80;;
19969;SDS011;10146;47.754;9.566;2022-08-30T05:40:18;18.83;;;17.02;;
19969;SDS011;10146;47.754;9.566;2022-08-30T05:42:44;19.27;;;17.38;;
19969;SDS011;10146;47.754;9.566;2022-08-30T05:45:11;14.40;;;13.00;;
19969;SDS011;10146;47.754;9.566;2022-08-30T05:47:38;18.60;;;14.88;;
19969;SDS011;10146;47.754;9.566;2022-08-30T05:50:05;17.92;;;16.20;;
19969;SDS011;10146;47.754;9.566;2022-08-30T05:52:33;17.75;;;15.95;;
19969;SDS011;10146;47.754;9.566;2022-08-30T05:55:00;17.17;;;15.38;;
19969;SDS011;10146;47.754;9.566;2022-08-30T05:57:30;16.77;;;15.10;;
19969;SDS011;10146;47.754;9.566;2022-08-30T05:59:58;21.83;;;16.48;;
19969;SDS011;10146;47.754;9.566;2022-08-30T06:02:24;14.02;;;12.73;;
19969;SDS011;10146;47.754;9.566;2022-08-30T06:04:50;17.02;;;15.32;;
19969;SDS011;10146;47.754;9.566;2022-08-30T06:07:16;17.05;;;15.45;;
19969;SDS011;10146;47.754;9.566;2022-08-30T06:09:41;17.73;;;15.93;;
19969;SDS011;10146;47.754;9.566;2022-08-30T06:12:07;17.55;;;15.68;;
19969;SDS011;10146;47.754;9.566;2022-08-30T06:14:33;17.83;;;16.02;;
19969;SDS011;10146;47.754;9.566;2022-08-30T06:16:58;18.70;;;16.80;;
19969;SDS011;10146;47.754;9.566;2022-08-30T06:19:24;18.48;;;14.95;;
19969;SDS011;10146;47.754;9.566;2022-08-30T06:21:50;16.80;;;15.27;;
19969;SDS011;10146;47.754;9.566;2022-08-30T06:24:16;16.83;;;15.15;;
19969;SDS011;10146;47.754;9.566;2022-08-30T06:26:43;17.38;;;15.63;;
19969;SDS011;10146;47.754;9.566;2022-08-30T06:29:11;18.98;;;16.98;;
19969;SDS011;10146;47.754;9.566;2022-08-30T06:31:39;17.50;;;15.80;;
19969;SDS011;10146;47.754;9.566;2022-08-30T06:34:05;18.40;;;16.48;;
19969;SDS011;10146;47.754;9.566;2022-08-30T06:36:31;18.42;;;16.63;;
19969;SDS011;10146;47.754;9.566;2022-08-30T06:38:58;18.58;;;16.65;;
19969;SDS011;10146;47.754;9.566;2022-08-30T06:41:29;21.02;;;17.13;;
19969;SDS011;10146;47.754;9.566;2022-08-30T06:43:56;16.13;;;14.43;;
19969;SDS011;10146;47.754;9.566;2022-08-30T06:46:26;17.95;;;14.95;;
19969;SDS011;10146;47.754;9.566;2022-08-30T06:48:55;17.75;;;16.10;;
19969;SDS011;10146;47.754;9.566;2022-08-30T06:51:21;18.77;;;16.45;;
19969;SDS011;10146;47.754;9.566;2022-08-30T06:53:48;18.80;;;15.75;;
19969;SDS011;10146;47.754;9.566;2022-08-30T06:56:15;20.17;;;16.38;;
19969;SDS011;10146;47.754;9.566;2022-08-30T06:58:41;18.25;;;16.45;;
19969;SDS011;10146;47.754;9.566;2022-08-30T07:01:09;18.17;;;16.38;;
19969;SDS011;10146;47.754;9.566;2022-08-30T07:03:37;17.85;;;15.95;;
19969;SDS011;10146;47.754;9.566;2022-08-30T07:06:02;16.75;;;14.82;;
19969;SDS011;10146;47.754;9.566;2022-08-30T07:08:28;17.25;;;15.52;;
19969;SDS011;10146;47.754;9.566;2022-08-30T07:10:54;16.08;;;14.63;;
19969;SDS011;10146;47.754;9.566;2022-08-30T07:13:20;16.05;;;14.40;;
19969;SDS011;10146;47.754;9.566;2022-08-30T07:15:48;15.73;;;13.98;;
19969;SDS011;10146;47.754;9.566;2022-08-30T07:18:14;16.02;;;14.38;;
19969;SDS011;10146;47.754;9.566;2022-08-30T07:21:04;16.60;;;14.88;;
19969;SDS011;10146;47.754;9.566;2022-08-30T07:23:32;16.05;;;14.20;;
19969;SDS011;10146;47.754;9.566;2022-08-30T07:25:57;17.42;;;14.27;;
19969;SDS011;10146;47.754;9.566;2022-08-30T07:28:26;15.18;;;13.60;;
19969;SDS011;10146;47.754;9.566;2022-08-30T07:30:52;14.32;;;13.02;;
19969;SDS011;10146;47.754;9.566;2022-08-30T07:33:17;16.40;;;13.95;;
19969;SDS011;10146;47.754;9.566;2022-08-30T07:35:43;13.35;;;12.13;;
19969;SDS011;10146;47.754;9.566;2022-08-30T07:38:11;14.68;;;13.10;;
19969;SDS011;10146;47.754;9.566;2022-08-30T07:40:37;13.60;;;12.18;;
19969;SDS011;10146;47.754;9.566;2022-08-30T07:43:03;14.02;;;12.52;;
19969;SDS011;10146;47.754;9.566;2022-08-30T07:45:28;14.10;;;12.43;;
19969;SDS011;10146;47.754;9.566;2022-08-30T07:47:54;13.70;;;12.30;;
19969;SDS011;10146;47.754;9.566;2022-08-30T07:50:21;17.15;;;12.65;;
19969;SDS011;10146;47.754;9.566;2022-08-30T07:52:47;13.18;;;11.40;;
19969;SDS011;10146;47.754;9.566;2022-08-30T07:55:13;14.35;;;11.52;;
19969;SDS011;10146;47.754;9.566;2022-08-30T07:57:38;12.65;;;10.63;;
19969;SDS011;10146;47.754;9.566;2022-08-30T08:00:04;11.38;;;10.25;;
19969;SDS011;10146;47.754;9.566;2022-08-30T08:02:30;11.75;;;10.23;;
19969;SDS011;10146;47.754;9.566;2022-08-30T08:04:57;11.57;;;10.45;;
19969;SDS011;10146;47.754;9.566;2022-08-30T08:07:23;10.07;;;9.10;;
19969;SDS011;10146;47.754;9.566;2022-08-30T08:09:48;11.05;;;9.27;;
19969;SDS011;10146;47.754;9.566;2022-08-30T08:12:14;10.32;;;9.32;;
19969;SDS011;10146;47.754;9.566;2022-08-30T08:14:39;11.00;;;9.50;;
19969;SDS011;10146;47.754;9.566;2022-08-30T08:17:06;10.80;;;9.40;;
19969;SDS011;10146;47.754;9.566;2022-08-30T08:19:32;10.77;;;9.68;;
19969;SDS011;10146;47.754;9.566;2022-08-30T08:21:58;9.65;;;8.80;;
19969;SDS011;10146;47.754;9.566;2022-08-30T08:24:27;10.23;;;9.02;;
19969;SDS011;10146;47.754;9.566;2022-08-30T08:26:54;9.45;;;8.55;;
19969;SDS011;10146;47.754;9.566;2022-08-30T08:29:20;9.05;;;8.15;;
19969;SDS011;10146;47.754;9.566;2022-08-30T08:31:46;9.40;;;8.50;;
19969;SDS011;10146;47.754;9.566;2022-08-30T08:34:13;8.70;;;7.50;;
19969;SDS011;10146;47.754;9.566;2022-08-30T08:36:39;10.25;;;8.02;;
19969;SDS011;10146;47.754;9.566;2022-08-30T08:39:06;8.30;;;7.45;;
19969;SDS011;10146;47.754;9.566;2022-08-30T08:47:30;8.50;;;7.78;;
19969;SDS011;10146;47.754;9.566;2022-08-30T08:50:03;8.43;;;7.72;;
19969;SDS011;10146;47.754;9.566;2022-08-30T08:52:55;8.75;;;7.50;;
19969;SDS011;10146;47.754;9.566;2022-08-30T08:55:50;8.23;;;7.43;;
19969;SDS011;10146;47.754;9.566;2022-08-30T08:58:21;8.70;;;7.90;;
19969;SDS011;10146;47.754;9.566;2022-08-30T09:00:50;7.80;;;7.10;;
19969;SDS011;10146;47.754;9.566;2022-08-30T09:03:19;7.50;;;6.88;;
19969;SDS011;10146;47.754;9.566;2022-08-30T09:05:46;8.40;;;7.40;;
19969;SDS011;10146;47.754;9.566;2022-08-30T09:08:13;7.85;;;7.18;;
19969;SDS011;10146;47.754;9.566;2022-08-30T09:10:42;7.95;;;7.35;;
19969;SDS011;10146;47.754;9.566;2022-08-30T09:13:23;8.65;;;7.60;;
19969;SDS011;10146;47.754;9.566;2022-08-30T09:15:50;8.25;;;7.57;;
19969;SDS011;10146;47.754;9.566;2022-08-30T09:18:17;7.90;;;7.07;;
19969;SDS011;10146;47.754;9.566;2022-08-30T09:20:44;8.18;;;7.47;;
19969;SDS011;10146;47.754;9.566;2022-08-30T09:25:42;8.60;;;7.80;;
19969;SDS011;10146;47.754;9.566;2022-08-30T09:28:31;8.93;;;8.18;;
19969;SDS011;10146;47.754;9.566;2022-08-30T09:31:01;7.93;;;7.32;;
19969;SDS011;10146;47.754;9.566;2022-08-30T09:33:26;8.13;;;7.43;;
19969;SDS011;10146;47.754;9.566;2022-08-30T09:35:53;7.70;;;7.10;;
19969;SDS011;10146;47.754;9.566;2022-08-30T09:38:23;7.53;;;6.93;;
19969;SDS011;10146;47.754;9.566;2022-08-30T09:40:57;8.20;;;7.40;;
19969;SDS011;10146;47.754;9.566;2022-08-30T09:48:32;7.70;;;7.10;;
19969;SDS011;10146;47.754;9.566;2022-08-30T10:10:42;6.85;;;6.25;;
19969;SDS011;10146;47.754;9.566;2022-08-30T10:22:03;6.88;;;6.10;;
19969;SDS011;10146;47.754;9.566;2022-08-30T10:24:50;6.47;;;5.90;;
19969;SDS011;10146;47.754;9.566;2022-08-30T10:27:24;5.75;;;5.25;;
19969;SDS011;10146;47.754;9.566;2022-08-30T10:29:54;7.53;;;5.68;;
19969;SDS011;10146;47.754;9.566;2022-08-30T10:32:33;5.85;;;5.25;;
19969;SDS011;10146;47.754;9.566;2022-08-30T10:35:06;6.78;;;5.70;;
19969;SDS011;10146;47.754;9.566;2022-08-30T10:37:37;6.00;;;5.50;;
19969;SDS011;10146;47.754;9.566;2022-08-30T10:40:11;4.95;;;4.50;;
19969;SDS011;10146;47.754;9.566;2022-08-30T10:43:12;6.18;;;4.43;;
19969;SDS011;10146;47.754;9.566;2022-08-30T10:45:52;5.35;;;4.50;;
19969;SDS011;10146;47.754;9.566;2022-08-30T10:48:23;4.53;;;4.13;;
19969;SDS011;10146;47.754;9.566;2022-08-30T10:50:58;4.82;;;4.40;;
19969;SDS011;10146;47.754;9.566;2022-08-30T10:53:37;4.38;;;4.07;;
19969;SDS011;10146;47.754;9.566;2022-08-30T10:56:11;4.28;;;3.50;;
19969;SDS011;10146;47.754;9.566;2022-08-30T10:58:40;4.75;;;4.10;;
19969;SDS011;10146;47.754;9.566;2022-08-30T11:06:34;4.55;;;4.00;;
19969;SDS011;10146;47.754;9.566;2022-08-30T11:14:38;4.28;;;3.55;;
19969;SDS011;10146;47.754;9.566;2022-08-30T11:17:05;3.70;;;3.50;;
19969;SDS011;10146;47.754;9.566;2022-08-30T11:20:00;4.35;;;4.00;;
19969;SDS011;10146;47.754;9.566;2022-08-30T11:22:30;4.68;;;3.85;;
19969;SDS011;10146;47.754;9.566;2022-08-30T11:25:11;4.43;;;3.80;;
19969;SDS011;10146;47.754;9.566;2022-08-30T11:27:42;3.72;;;3.42;;
19969;SDS011;10146;47.754;9.566;2022-08-30T11:32:57;4.05;;;3.75;;
19969;SDS011;10146;47.754;9.566;2022-08-30T11:38:10;4.72;;;3.97;;
19969;SDS011;10146;47.754;9.566;2022-08-30T11:40:44;4.15;;;3.75;;
19969;SDS011;10146;47.754;9.566;2022-08-30T12:02:43;5.13;;;4.35;;
19969;SDS011;10146;47.754;9.566;2022-08-30T12:08:06;5.57;;;4.80;;
19969;SDS011;10146;47.754;9.566;2022-08-30T12:10:50;4.45;;;4.05;;
19969;SDS011;10146;47.754;9.566;2022-08-30T12:18:43;4.60;;;4.03;;
19969;SDS011;10146;47.754;9.566;2022-08-30T12:21:12;5.70;;;4.18;;
19969;SDS011;10146;47.754;9.566;2022-08-30T12:26:34;4.80;;;3.95;;
19969;SDS011;10146;47.754;9.566;2022-08-30T12:31:46;4.25;;;3.25;;
19969;SDS011;10146;47.754;9.566;2022-08-30T12:34:22;4.22;;;3.83;;
19969;SDS011;10146;47.754;9.566;2022-08-30T12:37:00;4.40;;;4.00;;
19969;SDS011;10146;47.754;9.566;2022-08-30T12:39:33;4.85;;;4.45;;
19969;SDS011;10146;47.754;9.566;2022-08-30T12:44:47;4.05;;;3.75;;
19969;SDS011;10146;47.754;9.566;2022-08-30T12:47:16;4.53;;;3.85;;
19969;SDS011;10146;47.754;9.566;2022-08-30T12:49:53;7.10;;;4.53;;
19969;SDS011;10146;47.754;9.566;2022-08-30T12:52:27;4.22;;;3.83;;
19969;SDS011;10146;47.754;9.566;2022-08-30T12:55:06;5.70;;;4.10;;
19969;SDS011;10146;47.754;9.566;2022-08-30T12:57:39;6.65;;;4.15;;
19969;SDS011;10146;47.754;9.566;2022-08-30T13:00:09;6.30;;;4.00;;
19969;SDS011;10146;47.754;9.566;2022-08-30T13:02:50;6.75;;;3.90;;
19969;SDS011;10146;47.754;9.566;2022-08-30T13:11:01;5.55;;;4.32;;
19969;SDS011;10146;47.754;9.566;2022-08-30T13:13:38;7.22;;;3.75;;
19969;SDS011;10146;47.754;9.566;2022-08-30T13:18:53;5.90;;;3.92;;
19969;SDS011;10146;47.754;9.566;2022-08-30T13:21:48;5.45;;;3.75;;
19969;SDS011;10146;47.754;9.566;2022-08-30T13:24:16;4.45;;;4.00;;
19969;SDS011;10146;47.754;9.566;2022-08-30T13:26:42;5.93;;;4.18;;
19969;SDS011;10146;47.754;9.566;2022-08-30T13:29:13;4.72;;;4.28;;
19969;SDS011;10146;47.754;9.566;2022-08-30T13:31:42;4.45;;;4.05;;
19969;SDS011;10146;47.754;9.566;2022-08-30T13:34:08;4.00;;;3.58;;
19969;SDS011;10146;47.754;9.566;2022-08-30T13:36:35;4.60;;;4.05;;
19969;SDS011;10146;47.754;9.566;2022-08-30T13:39:06;4.63;;;4.22;;
19969;SDS011;10146;47.754;9.566;2022-08-30T13:41:32;4.50;;;3.85;;
19969;SDS011;10146;47.754;9.566;2022-08-30T13:43:57;4.95;;;4.45;;
19969;SDS011;10146;47.754;9.566;2022-08-30T13:46:23;7.18;;;4.00;;
19969;SDS011;10146;47.754;9.566;2022-08-30T13:48:57;5.15;;;4.28;;
19969;SDS011;10146;47.754;9.566;2022-08-30T13:51:26;4.40;;;4.10;;
19969;SDS011;10146;47.754;9.566;2022-08-30T13:53:52;4.20;;;3.80;;
19969;SDS011;10146;47.754;9.566;2022-08-30T13:56:18;4.50;;;4.00;;
19969;SDS011;10146;47.754;9.566;2022-08-30T13:58:43;4.40;;;4.00;;
19969;SDS011;10146;47.754;9.566;2022-08-30T14:01:09;4.47;;;4.07;;
19969;SDS011;10146;47.754;9.566;2022-08-30T14:03:35;4.35;;;4.00;;
19969;SDS011;10146;47.754;9.566;2022-08-30T14:06:00;4.90;;;4.30;;
19969;SDS011;10146;47.754;9.566;2022-08-30T14:08:27;4.50;;;3.80;;
19969;SDS011;10146;47.754;9.566;2022-08-30T14:10:55;4.00;;;3.70;;
19969;SDS011;10146;47.754;9.566;2022-08-30T14:13:21;4.88;;;3.90;;
19969;SDS011;10146;47.754;9.566;2022-08-30T14:15:49;6.10;;;3.88;;
19969;SDS011;10146;47.754;9.566;2022-08-30T14:18:16;4.25;;;3.88;;
19969;SDS011;10146;47.754;9.566;2022-08-30T14:20:42;4.47;;;3.72;;
19969;SDS011;10146;47.754;9.566;2022-08-30T14:23:07;4.43;;;4.03;;
19969;SDS011;10146;47.754;9.566;2022-08-30T14:25:33;4.40;;;4.00;;
19969;SDS011;10146;47.754;9.566;2022-08-30T14:27:59;5.80;;;3.65;;
19969;SDS011;10146;47.754;9.566;2022-08-30T14:30:25;5.80;;;4.40;;
19969;SDS011;10146;47.754;9.566;2022-08-30T14:32:51;8.15;;;4.43;;
19969;SDS011;10146;47.754;9.566;2022-08-30T14:35:17;4.78;;;3.92;;
19969;SDS011;10146;47.754;9.566;2022-08-30T14:37:45;4.40;;;3.72;;
19969;SDS011;10146;47.754;9.566;2022-08-30T14:40:12;5.00;;;4.10;;
19969;SDS011;10146;47.754;9.566;2022-08-30T14:42:37;4.53;;;4.13;;
19969;SDS011;10146;47.754;9.566;2022-08-30T14:45:03;4.28;;;3.97;;
19969;SDS011;10146;47.754;9.566;2022-08-30T14:47:30;4.35;;;4.05;;
19969;SDS011;10146;47.754;9.566;2022-08-30T14:49:56;4.70;;;4.07;;
19969;SDS011;10146;47.754;9.566;2022-08-30T14:52:24;5.88;;;4.50;;
19969;SDS011;10146;47.754;9.566;2022-08-30T14:54:50;4.15;;;3.85;;
19969;SDS011;10146;47.754;9.566;2022-08-30T14:57:16;4.13;;;3.72;;
19969;SDS011;10146;47.754;9.566;2022-08-30T14:59:42;5.03;;;4.53;;
19969;SDS011;10146;47.754;9.566;2022-08-30T15:02:08;4.22;;;3.88;;
19969;SDS011;10146;47.754;9.566;2022-08-30T15:04:33;4.45;;;3.88;;
19969;SDS011;10146;47.754;9.566;2022-08-30T15:06:59;4.20;;;3.90;;
19969;SDS011;10146;47.754;9.566;2022-08-30T15:09:25;4.30;;;3.90;;
19969;SDS011;10146;47.754;9.566;2022-08-30T15:11:52;4.70;;;4.30;;
19969;SDS011;10146;47.754;9.566;2022-08-30T15:14:20;4.80;;;4.32;;
19969;SDS011;10146;47.754;9.566;2022-08-30T15:16:46;6.85;;;4.22;;
19969;SDS011;10146;47.754;9.566;2022-08-30T15:19:11;4.90;;;4.32;;
19969;SDS011;10146;47.754;9.566;2022-08-30T15:21:39;4.32;;;3.85;;
19969;SDS011;10146;47.754;9.566;2022-08-30T15:24:07;4.35;;;3.90;;
19969;SDS011;10146;47.754;9.566;2022-08-30T15:26:35;5.78;;;3.67;;
19969;SDS011;10146;47.754;9.566;2022-08-30T15:29:01;5.75;;;4.07;;
19969;SDS011;10146;47.754;9.566;2022-08-30T15:31:27;3.90;;;3.60;;
19969;SDS011;10146;47.754;9.566;2022-08-30T15:33:56;5.50;;;4.05;;
19969;SDS011;10146;47.754;9.566;2022-08-30T15:36:23;4.00;;;3.67;;
19969;SDS011;10146;47.754;9.566;2022-08-30T15:38:50;4.32;;;3.78;;
19969;SDS011;10146;47.754;9.566;2022-08-30T15:41:16;7.40;;;4.20;;
19969;SDS011;10146;47.754;9.566;2022-08-30T15:43:42;5.65;;;3.95;;
19969;SDS011;10146;47.754;9.566;2022-08-30T15:46:15;4.50;;;4.10;;
19969;SDS011;10146;47.754;9.566;2022-08-30T15:48:42;4.65;;;4.15;;
19969;SDS011;10146;47.754;9.566;2022-08-30T15:51:08;4.65;;;4.20;;
19969;SDS011;10146;47.754;9.566;2022-08-30T15:53:34;4.35;;;4.05;;
19969;SDS011;10146;47.754;9.566;2022-08-30T15:56:00;4.43;;;4.00;;
19969;SDS011;10146;47.754;9.566;2022-08-30T15:58:26;4.90;;;3.72;;
19969;SDS011;10146;47.754;9.566;2022-08-30T16:00:51;5.35;;;3.92;;
19969;SDS011;10146;47.754;9.566;2022-08-30T16:03:17;3.67;;;3.38;;
19969;SDS011;10146;47.754;9.566;2022-08-30T16:05:43;4.35;;;4.05;;
19969;SDS011;10146;47.754;9.566;2022-08-30T16:08:09;4.30;;;4.00;;
19969;SDS011;10146;47.754;9.566;2022-08-30T16:10:35;4.15;;;3.72;;
19969;SDS011;10146;47.754;9.566;2022-08-30T16:13:03;4.60;;;3.83;;
19969;SDS011;10146;47.754;9.566;2022-08-30T16:15:28;4.35;;;3.97;;
19969;SDS011;10146;47.754;9.566;2022-08-30T16:17:54;4.80;;;4.25;;
19969;SDS011;10146;47.754;9.566;2022-08-30T16:20:20;4.55;;;4.07;;
19969;SDS011;10146;47.754;9.566;2022-08-30T16:22:45;4.35;;;4.00;;
19969;SDS011;10146;47.754;9.566;2022-08-30T16:25:11;4.93;;;4.18;;